# Tabular Observed and Forecast Hydrograph Information
#
# Location: San Joaquin River - Newman (NWMC1)
#
# File Generation Time: 09/03/2026 at 07:22 AM PDT
# Data Interval: 1 Hour
#
# Most Recent Date & Time of Maximum Observed: 08/30/2026 at 09:00 PM PDT
# Maximum Observed Stage: 48.08 Feet
# Maximum Observed Flow: 227 cfs
#
# Earliest Date & Time of Maximum Forecast: 09/05/2026 at 07:00 AM PDT
# Maximum Forecast Stage: 48.05 Feet
# Maximum Forecast Flow: 221 cfs
#
# OBSERVED
#
# Date & Time (Local) Stage (Feet) Flow (cfs) Trend Observed Status
# ---------------------------------------------------------------------------------
08/29/2026 07 AM PDT 47.92 196 Normal
08/29/2026 08 AM PDT 47.94 200 + Normal
08/29/2026 09 AM PDT 47.95 202 + Normal
08/29/2026 10 AM PDT 47.96 204 + Normal
08/29/2026 11 AM PDT 47.96 204 0 Normal
08/29/2026 12 PM PDT 47.97 206 + Normal
08/29/2026 01 PM PDT 47.96 204 - Normal
08/29/2026 02 PM PDT 47.96 204 0 Normal
08/29/2026 03 PM PDT 47.95 202 - Normal
08/29/2026 04 PM PDT 47.94 200 - Normal
08/29/2026 05 PM PDT 47.93 198 - Normal
08/29/2026 06 PM PDT 47.93 198 0 Normal
08/29/2026 07 PM PDT 47.92 196 - Normal
08/29/2026 08 PM PDT 47.92 196 0 Normal
08/29/2026 09 PM PDT 47.91 194 - Normal
08/29/2026 10 PM PDT 47.91 194 0 Normal
08/29/2026 11 PM PDT 47.91 194 0 Normal
08/30/2026 12 AM PDT 47.91 194 0 Normal
08/30/2026 01 AM PDT 47.91 194 0 Normal
08/30/2026 02 AM PDT 47.91 194 0 Normal
08/30/2026 03 AM PDT 47.92 196 + Normal
08/30/2026 04 AM PDT 47.93 198 + Normal
08/30/2026 05 AM PDT 47.94 200 + Normal
08/30/2026 06 AM PDT 47.95 202 + Normal
08/30/2026 07 AM PDT 47.97 206 + Normal
08/30/2026 08 AM PDT 48.01 214 + Normal
08/30/2026 09 AM PDT 48.02 215 + Normal
08/30/2026 10 AM PDT 48.03 217 + Normal
08/30/2026 11 AM PDT 48.05 221 + Normal
08/30/2026 12 PM PDT 48.06 223 + Normal
08/30/2026 01 PM PDT 48.05 221 - Normal
08/30/2026 02 PM PDT 48.05 221 0 Normal
08/30/2026 03 PM PDT 48.06 223 + Normal
08/30/2026 04 PM PDT 48.07 225 + Normal
08/30/2026 05 PM PDT 48.07 225 0 Normal
08/30/2026 06 PM PDT 48.07 225 0 Normal
08/30/2026 07 PM PDT 48.07 225 0 Normal
08/30/2026 08 PM PDT 48.08 227 + Normal
08/30/2026 09 PM PDT 48.08 227 0 Normal
08/30/2026 10 PM PDT 48.07 225 - Normal
08/30/2026 11 PM PDT 48.07 225 0 Normal
08/31/2026 12 AM PDT 48.06 223 - Normal
08/31/2026 01 AM PDT 48.05 221 - Normal
08/31/2026 02 AM PDT 48.05 221 0 Normal
08/31/2026 03 AM PDT 48.06 223 + Normal
08/31/2026 04 AM PDT 48.06 223 0 Normal
08/31/2026 05 AM PDT 48.07 225 + Normal
08/31/2026 06 AM PDT 48.07 225 0 Normal
08/31/2026 07 AM PDT 48.07 225 0 Normal
08/31/2026 08 AM PDT 48.07 225 0 Normal
08/31/2026 09 AM PDT 48.06 223 - Normal
08/31/2026 10 AM PDT 48.05 221 - Normal
08/31/2026 11 AM PDT 48.03 217 - Normal
08/31/2026 12 PM PDT 48.01 214 - Normal
08/31/2026 01 PM PDT 48.01 214 0 Normal
08/31/2026 02 PM PDT 47.99 210 - Normal
08/31/2026 03 PM PDT 47.99 210 0 Normal
08/31/2026 04 PM PDT 47.98 208 - Normal
08/31/2026 05 PM PDT 47.98 208 0 Normal
08/31/2026 06 PM PDT 47.98 208 0 Normal
08/31/2026 07 PM PDT 47.98 208 0 Normal
08/31/2026 08 PM PDT 47.97 206 - Normal
08/31/2026 09 PM PDT 47.97 206 0 Normal
08/31/2026 10 PM PDT 47.96 204 - Normal
08/31/2026 11 PM PDT 47.96 204 0 Normal
09/01/2026 12 AM PDT 47.96 204 0 Normal
09/01/2026 01 AM PDT 47.97 206 + Normal
09/01/2026 02 AM PDT 47.97 206 0 Normal
09/01/2026 03 AM PDT 47.96 204 - Normal
09/01/2026 04 AM PDT 47.97 206 + Normal
09/01/2026 05 AM PDT 47.96 204 - Normal
09/01/2026 06 AM PDT 47.95 202 - Normal
09/01/2026 07 AM PDT 47.95 202 0 Normal
09/01/2026 08 AM PDT 47.95 202 0 Normal
09/01/2026 09 AM PDT 47.94 200 - Normal
09/01/2026 10 AM PDT 47.95 202 + Normal
09/01/2026 11 AM PDT 47.94 200 - Normal
09/01/2026 12 PM PDT 47.93 198 - Normal
09/01/2026 01 PM PDT 47.92 196 - Normal
09/01/2026 02 PM PDT 47.91 194 - Normal
09/01/2026 03 PM PDT 47.89 190 - Normal
09/01/2026 04 PM PDT 47.88 188 - Normal
09/01/2026 05 PM PDT 47.87 186 - Normal
09/01/2026 06 PM PDT 47.86 184 - Normal
09/01/2026 07 PM PDT 47.85 182 - Normal
09/01/2026 08 PM PDT 47.85 182 0 Normal
09/01/2026 09 PM PDT 47.85 182 0 Normal
09/01/2026 10 PM PDT 47.87 186 + Normal
09/01/2026 11 PM PDT 47.88 188 + Normal
09/02/2026 12 AM PDT 47.90 192 + Normal
09/02/2026 01 AM PDT 47.91 194 + Normal
09/02/2026 02 AM PDT 47.93 198 + Normal
09/02/2026 03 AM PDT 47.93 198 0 Normal
09/02/2026 04 AM PDT 47.95 202 + Normal
09/02/2026 05 AM PDT 47.95 202 0 Normal
09/02/2026 06 AM PDT 47.96 204 + Normal
09/02/2026 07 AM PDT 47.96 204 0 Normal
09/02/2026 08 AM PDT 47.97 206 + Normal
09/02/2026 09 AM PDT 47.97 206 0 Normal
09/02/2026 10 AM PDT 47.97 206 0 Normal
09/02/2026 11 AM PDT 47.97 206 0 Normal
09/02/2026 12 PM PDT 47.97 206 0 Normal
09/02/2026 01 PM PDT 47.96 204 - Normal
09/02/2026 02 PM PDT 47.95 202 - Normal
09/02/2026 03 PM PDT 47.94 200 - Normal
09/02/2026 04 PM PDT 47.93 198 - Normal
09/02/2026 05 PM PDT 47.91 194 - Normal
09/02/2026 06 PM PDT 47.90 192 - Normal
09/02/2026 07 PM PDT 47.90 192 0 Normal
09/02/2026 08 PM PDT 47.89 190 - Normal
09/02/2026 09 PM PDT 47.89 190 0 Normal
09/02/2026 10 PM PDT 47.89 190 0 Normal
09/02/2026 11 PM PDT 47.88 188 - Normal
09/03/2026 12 AM PDT 47.88 188 0 Normal
09/03/2026 01 AM PDT 47.88 188 0 Normal
09/03/2026 02 AM PDT 47.88 188 0 Normal
09/03/2026 03 AM PDT 47.89 190 + Normal
09/03/2026 04 AM PDT 47.90 192 + Normal
09/03/2026 05 AM PDT 47.90 192 0 Normal
09/03/2026 06 AM PDT 47.90 192 0 Normal
09/03/2026 07 AM PDT 47.90 192 0 Normal
#
# FORECAST
#
# Date & Time (Local) Stage (Feet) Flow (cfs) Trend Forecast Status
# ---------------------------------------------------------------------------------
09/03/2026 08 AM PDT 47.90 192 Normal
09/03/2026 09 AM PDT 47.90 192 0 Normal
09/03/2026 10 AM PDT 47.90 192 0 Normal
09/03/2026 11 AM PDT 47.90 192 0 Normal
09/03/2026 12 PM PDT 47.90 192 0 Normal
09/03/2026 01 PM PDT 47.90 192 0 Normal
09/03/2026 02 PM PDT 47.91 194 + Normal
09/03/2026 03 PM PDT 47.91 194 0 Normal
09/03/2026 04 PM PDT 47.91 194 0 Normal
09/03/2026 05 PM PDT 47.92 196 + Normal
09/03/2026 06 PM PDT 47.93 198 + Normal
09/03/2026 07 PM PDT 47.93 198 0 Normal
09/03/2026 08 PM PDT 47.94 200 + Normal
09/03/2026 09 PM PDT 47.95 202 + Normal
09/03/2026 10 PM PDT 47.95 202 0 Normal
09/03/2026 11 PM PDT 47.96 204 + Normal
09/04/2026 12 AM PDT 47.97 206 + Normal
09/04/2026 01 AM PDT 47.97 206 0 Normal
09/04/2026 02 AM PDT 47.98 208 + Normal
09/04/2026 03 AM PDT 47.98 208 0 Normal
09/04/2026 04 AM PDT 47.99 210 + Normal
09/04/2026 05 AM PDT 47.99 210 0 Normal
09/04/2026 06 AM PDT 48.00 212 + Normal
09/04/2026 07 AM PDT 48.00 212 0 Normal
09/04/2026 08 AM PDT 48.01 214 + Normal
09/04/2026 09 AM PDT 48.01 214 0 Normal
09/04/2026 10 AM PDT 48.01 214 0 Normal
09/04/2026 11 AM PDT 48.02 215 + Normal
09/04/2026 12 PM PDT 48.02 215 0 Normal
09/04/2026 01 PM PDT 48.02 215 0 Normal
09/04/2026 02 PM PDT 48.02 215 0 Normal
09/04/2026 03 PM PDT 48.03 217 + Normal
09/04/2026 04 PM PDT 48.03 217 0 Normal
09/04/2026 05 PM PDT 48.03 217 0 Normal
09/04/2026 06 PM PDT 48.03 217 0 Normal
09/04/2026 07 PM PDT 48.03 217 0 Normal
09/04/2026 08 PM PDT 48.03 217 0 Normal
09/04/2026 09 PM PDT 48.04 219 + Normal
09/04/2026 10 PM PDT 48.04 219 0 Normal
09/04/2026 11 PM PDT 48.04 219 0 Normal
09/05/2026 12 AM PDT 48.04 219 0 Normal
09/05/2026 01 AM PDT 48.04 219 0 Normal
09/05/2026 02 AM PDT 48.04 219 0 Normal
09/05/2026 03 AM PDT 48.04 219 0 Normal
09/05/2026 04 AM PDT 48.04 219 0 Normal
09/05/2026 05 AM PDT 48.04 219 0 Normal
09/05/2026 06 AM PDT 48.04 219 0 Normal
09/05/2026 07 AM PDT 48.05 221 + Normal
09/05/2026 08 AM PDT 48.05 221 0 Normal
09/05/2026 09 AM PDT 48.05 221 0 Normal
09/05/2026 10 AM PDT 48.05 221 0 Normal
09/05/2026 11 AM PDT 48.05 221 0 Normal
09/05/2026 12 PM PDT 48.05 221 0 Normal
09/05/2026 01 PM PDT 48.05 221 0 Normal
09/05/2026 02 PM PDT 48.05 221 0 Normal
09/05/2026 03 PM PDT 48.05 221 0 Normal
09/05/2026 04 PM PDT 48.05 221 0 Normal
09/05/2026 05 PM PDT 48.05 221 0 Normal
09/05/2026 06 PM PDT 48.05 221 0 Normal
09/05/2026 07 PM PDT 48.05 221 0 Normal
09/05/2026 08 PM PDT 48.05 221 0 Normal
09/05/2026 09 PM PDT 48.05 221 0 Normal
09/05/2026 10 PM PDT 48.05 221 0 Normal
09/05/2026 11 PM PDT 48.05 221 0 Normal
09/06/2026 12 AM PDT 48.05 221 0 Normal
09/06/2026 01 AM PDT 48.05 221 0 Normal
09/06/2026 02 AM PDT 48.05 221 0 Normal
09/06/2026 03 AM PDT 48.05 221 0 Normal
09/06/2026 04 AM PDT 48.05 221 0 Normal
09/06/2026 05 AM PDT 48.04 219 - Normal
09/06/2026 06 AM PDT 48.04 219 0 Normal
09/06/2026 07 AM PDT 48.04 219 0 Normal
09/06/2026 08 AM PDT 48.04 219 0 Normal
09/06/2026 09 AM PDT 48.04 219 0 Normal
09/06/2026 10 AM PDT 48.04 219 0 Normal
09/06/2026 11 AM PDT 48.04 219 0 Normal
09/06/2026 12 PM PDT 48.04 219 0 Normal
09/06/2026 01 PM PDT 48.04 219 0 Normal
09/06/2026 02 PM PDT 48.04 219 0 Normal
09/06/2026 03 PM PDT 48.04 219 0 Normal
09/06/2026 04 PM PDT 48.04 219 0 Normal
09/06/2026 05 PM PDT 48.04 219 0 Normal
09/06/2026 06 PM PDT 48.04 219 0 Normal
09/06/2026 07 PM PDT 48.04 219 0 Normal
09/06/2026 08 PM PDT 48.04 219 0 Normal
09/06/2026 09 PM PDT 48.04 219 0 Normal
09/06/2026 10 PM PDT 48.04 219 0 Normal
09/06/2026 11 PM PDT 48.04 219 0 Normal
09/07/2026 12 AM PDT 48.04 219 0 Normal
09/07/2026 01 AM PDT 48.04 219 0 Normal
09/07/2026 02 AM PDT 48.04 219 0 Normal
09/07/2026 03 AM PDT 48.04 219 0 Normal
09/07/2026 04 AM PDT 48.04 219 0 Normal
09/07/2026 05 AM PDT 48.04 219 0 Normal
09/07/2026 06 AM PDT 48.04 219 0 Normal
09/07/2026 07 AM PDT 48.04 219 0 Normal
09/07/2026 08 AM PDT 48.04 219 0 Normal
09/07/2026 09 AM PDT 48.03 217 - Normal
09/07/2026 10 AM PDT 48.03 217 0 Normal
09/07/2026 11 AM PDT 48.03 217 0 Normal
09/07/2026 12 PM PDT 48.03 217 0 Normal
09/07/2026 01 PM PDT 48.03 217 0 Normal
09/07/2026 02 PM PDT 48.03 217 0 Normal
09/07/2026 03 PM PDT 48.03 217 0 Normal
09/07/2026 04 PM PDT 48.03 217 0 Normal
09/07/2026 05 PM PDT 48.03 217 0 Normal
09/07/2026 06 PM PDT 48.03 217 0 Normal
09/07/2026 07 PM PDT 48.03 217 0 Normal
09/07/2026 08 PM PDT 48.03 217 0 Normal
09/07/2026 09 PM PDT 48.03 217 0 Normal
09/07/2026 10 PM PDT 48.03 217 0 Normal
09/07/2026 11 PM PDT 48.03 217 0 Normal
09/08/2026 12 AM PDT 48.03 217 0 Normal
09/08/2026 01 AM PDT 48.03 217 0 Normal
09/08/2026 02 AM PDT 48.03 217 0 Normal
09/08/2026 03 AM PDT 48.03 217 0 Normal
09/08/2026 04 AM PDT 48.03 217 0 Normal
09/08/2026 05 AM PDT 48.03 217 0 Normal
#
# NOTE 1: Stages are rounded to the nearest hundredth (.01) of a foot.
# NOTE 2: Flows are rounded to the nearest (1) cfs.
# NOTE 3: Trends are determined using hourly change in unrounded stage and flow.
# NOTE 4: Maximum Values are determined using unrounded stage and flow.
|